Flag for Denmark

Past Weather in 57°43'11.5"N, 10°36'05.5"E, Denmark — Yesterday and Last 2 Weeks

Currently: 59 °F. Fog. (Weather station: Gothenburg / Save, Denmark). See more current weather

Past Weather in 57°43'11.5"N, 10°36'05.5"E — Graph

°F

57°43'11.5"N, 10°36'05.5"E Temperature Yesterday

Maximum temperature yesterday: 64 °F (at 4:20 pm)
Minimum temperature yesterday: 52 °F (at 11:50 pm)
Average temperature yesterday: 58 °F

High & Low Weather Summary for the Past Weeks

 TemperatureHumidityPressure
High81 °F (May 23, 12:50 pm)100% (May 24, 2:20 am)30.30 "Hg (May 24, 2:20 am)
Low39 °F (May 11, 4:50 am)22% (May 17, 2:20 pm)29.86 "Hg (May 19, 4:50 pm)
Average61 °F57%30.07 "Hg
* Reported May 10 9:20 pm — May 25 9:50 pm, 57°43'11.5"N, 10°36'05.5"E. Weather by CustomWeather, © 2024

Note: Actual official high and low records may vary slightly from our data, if they occured in-between our weather recording intervals... More about our weather records

57°43'11.5"N, 10°36'05.5"E Weather History for the Previous 24 Hours

Scroll right to see more
 ConditionsComfort  
Time TempWeatherWind HumidityBarometerVisibility
9:50 pm
Sat, May 25
63 °FClear.1 mph88%30.09 "HgN/A
9:20 pm63 °FClear.3 mph88%30.09 "HgN/A
8:50 pm63 °FPassing clouds.6 mph88%30.09 "HgN/A
7:50 pm64 °FScattered clouds.5 mph83%30.07 "HgN/A
7:20 pm66 °FPassing clouds.1 mph88%30.07 "HgN/A
6:50 pm72 °FHeavy rain. Broken clouds.8 mph69%30.07 "Hg6 mi
6:20 pm77 °FPassing clouds.12 mph54%30.04 "HgN/A
5:50 pm77 °FPassing clouds.9 mph54%30.07 "HgN/A
5:20 pm77 °FPassing clouds.9 mph51%30.07 "HgN/A
4:50 pm77 °FPassing clouds.9 mph47%30.07 "HgN/A
4:20 pm75 °FPassing clouds.12 mph54%30.09 "HgN/A
3:20 pm75 °FPassing clouds.8 mph54%30.09 "HgN/A
2:20 pm73 °FScattered clouds.9 mph57%30.12 "HgN/A
1:50 pm73 °FScattered clouds.6 mph53%30.12 "HgN/A
1:20 pm73 °FScattered clouds.6 mph57%30.12 "HgN/A
12:50 pm72 °FPartly sunny.6 mph65%30.12 "HgN/A
12:20 pm70 °FPartly sunny.6 mph64%30.12 "HgN/A
11:50 am70 °FPartly sunny.5 mph64%30.12 "HgN/A
11:20 am68 °FPartly sunny.6 mph69%30.12 "HgN/A
10:20 am64 °FPartly sunny.6 mph73%30.12 "HgN/A
9:50 am63 °FPartly sunny.6 mph77%30.15 "HgN/A
9:20 am63 °FPartly sunny.6 mph77%30.15 "HgN/A
8:50 am61 °FPartly sunny.2 mph77%30.15 "HgN/A
8:20 am61 °FPartly sunny.5 mph72%30.15 "HgN/A
7:50 am57 °FPartly sunny.3 mph88%30.15 "HgN/A
7:20 am57 °FOvercast.3 mph88%30.15 "HgN/A
6:50 am55 °FOvercast.3 mph94%30.15 "HgN/A
6:20 am55 °FOvercast.No wind88%30.15 "HgN/A
5:50 am55 °FOvercast.No wind88%30.15 "HgN/A
5:20 am54 °FOvercast.No wind94%30.15 "HgN/A
4:50 am54 °FOvercast.No wind94%30.15 "HgN/A
4:20 am54 °FOvercast.No wind94%30.15 "HgN/A
3:50 am54 °FOvercast.No wind88%30.15 "HgN/A
3:20 am54 °FOvercast.No wind88%30.15 "HgN/A
2:50 am52 °FOvercast.No wind94%30.15 "HgN/A
1:50 am52 °FOvercast.No wind94%30.18 "HgN/A
1:20 am52 °FOvercast.No wind94%30.18 "Hg6 mi
12:50 am52 °FOvercast.2 mph88%30.18 "HgN/A
12:20 am52 °FPassing clouds.1 mph88%30.18 "Hg5 mi
11:50 pm
Fri, May 24
52 °FOvercast.2 mph88%30.18 "HgN/A
11:20 pm54 °FClear.No wind82%30.18 "HgN/A
Weather by CustomWeather, © 2024

See weather overview